Cheshire, Oregon
Current Conditions -  °F | °C
As of 3:54 PM on Tuesday 25 Nov 2014 (Local Time) from KEUG Reporting Station
Overcast Overcast  
Wind Chill: 15°   Ceiling: 5000
Heat Index: 15°   Visibility: 10mi
Dew Point: 11°   Wind: 5mph
Humidity: 78%   Direction: 210°SSW
Pressure: 30.38"   Gusts: NA
Location:  44.19°N, 123.29°W
Report Text: KEUG 252354Z 21004KT 10SM FEW030 OVC050 15/11 A3038 RMK AO2 SLP286 T01500111 10167 20139 55005
Loading
Personal Weather Stations






























Interactive Weather Map New forecast layout! Learn more

10-Day Weather Forecast

Advertisements
Track Severe Weather on mobile